Terminal Aerodrome Forecast
Issued by NWS

Home | Current Version | Previous Version | Text Only | Print | Product List | Glossary On
Versions: 1 2 3 4 5 6 7 8 9 10 11 12 13 14 15 16 17 18 19 20 21 22 23 24 25 26 27 28
000
FTUS43 KDVN 281139
TAFCID
TAF
KCID 281139Z 2812/2912 14004KT P6SM SCT250
     FM281600 16014KT P6SM BKN250
     FM282300 15012KT P6SM VCSH OVC080
     FM290200 13007KT P6SM OVC120 PROB30 2906/2912 5SM -SHRA OVC040=

USA.gov is the U.S. government's official web portal to all federal, state and local government web resources and services.